.
WxDataArchive / Data Records for 2010-11-21
2010-11-20 November 2010 2010-11-22

Data Records for Sunday, 21 November 2010

Time	Temp	Chill	HIndex	Humid	Dewpt	 Wind 	HiWind	WindDir	Rain 	Barom 
-----	----	-----	------	-----	-----	------	------	-------	-----	----- 
00:00	40.5	40.5	40.5	93	38.6	1	4	90	0.00	30.271 
00:05	40.5	40.5	40.5	93	38.6	2	5	90	0.00	30.271 
00:10	40.3	40.3	40.3	93	38.4	2	7	112	0.00	30.271 
00:15	40.3	40.3	40.3	93	38.4	3	6	112	0.00	30.269 
00:20	40.3	40.3	40.3	93	38.4	3	10	90	0.00	30.269 
00:25	40.3	40.3	40.3	93	38.4	2	7	90	0.00	30.269 
00:30	40.3	40.3	40.3	93	38.4	3	6	90	0.00	30.267 
00:35	40.3	40.3	40.3	93	38.4	2	5	112	0.00	30.267 
00:40	40.3	40.3	40.3	93	38.4	3	6	112	0.00	30.267 
00:45	40.3	40.3	40.3	93	38.4	1	4	112	0.00	30.253 
00:50	40.5	40.5	40.5	93	38.6	1	4	112	0.00	30.253 
00:55	40.5	40.5	40.5	93	38.6	1	5	135	0.00	30.253 
01:00	40.6	40.6	40.6	93	38.7	1	3	90	0.00	30.253 
01:05	40.6	40.6	40.6	93	38.7	2	5	90	0.00	30.253 
01:10	40.6	40.6	40.6	93	38.7	2	6	90	0.00	30.253 
01:15	40.6	40.6	40.6	93	38.7	3	7	112	0.00	30.250 
01:20	40.6	40.6	40.6	93	38.7	3	7	90	0.00	30.250 
01:25	40.6	38.0	40.6	93	38.7	4	7	112	0.00	30.250 
01:30	40.6	40.6	40.6	94	39.0	2	6	90	0.00	30.241 
01:35	40.6	40.6	40.6	94	39.0	3	7	135	0.00	30.241 
01:40	40.8	40.8	40.8	94	39.2	3	6	112	0.00	30.241 
01:45	40.6	40.6	40.6	94	39.0	3	9	112	0.00	30.235 
01:50	40.6	40.6	40.6	94	39.0	2	6	112	0.00	30.235 
01:55	40.6	40.6	40.6	94	39.0	3	7	112	0.00	30.235 
02:00	40.6	40.6	40.6	94	39.0	3	6	90	0.00	30.234 
02:05	40.6	40.6	40.6	94	39.0	2	5	112	0.00	30.234 
02:10	40.8	40.8	40.8	93	38.9	3	6	90	0.00	30.234 
02:15	40.8	40.8	40.8	93	38.9	2	4	90	0.00	30.244 
02:20	40.8	40.8	40.8	93	38.9	1	4	68	0.00	30.244 
02:25	40.8	40.8	40.8	93	38.9	3	6	68	0.00	30.244 
02:30	40.8	40.8	40.8	93	38.9	3	7	90	0.00	30.236 
02:35	40.8	40.8	40.8	93	38.9	3	6	90	0.00	30.236 
02:40	40.6	40.6	40.6	93	38.7	3	11	90	0.00	30.236 
02:45	40.5	37.1	40.5	93	38.6	5	9	90	0.00	30.230 
02:50	40.3	37.7	40.3	93	38.4	4	7	112	0.00	30.230 
02:55	40.3	40.3	40.3	93	38.4	3	6	112	0.00	30.230 
03:00	40.2	36.7	40.2	93	38.3	5	9	90	0.00	30.235 
03:05	40.1	37.4	40.1	93	38.2	4	9	90	0.00	30.235 
03:10	39.9	39.9	39.9	93	38.0	3	6	90	0.00	30.235 
03:15	39.9	37.2	39.9	93	38.0	4	7	90	0.00	30.234 
03:20	39.6	36.9	39.6	93	37.7	4	10	90	0.00	30.234 
03:25	39.3	35.7	39.3	93	37.4	5	12	112	0.01	30.234 
03:30	39.1	36.3	39.1	93	37.2	4	10	90	0.00	30.227 
03:35	38.9	36.0	38.9	94	37.3	4	9	112	0.00	30.227 
03:40	38.8	35.9	38.8	94	37.2	4	8	112	0.00	30.227 
03:45	38.8	38.8	38.8	94	37.2	3	6	68	0.00	30.226 
03:50	38.8	35.9	38.8	94	37.2	4	6	112	0.00	30.226 
03:55	38.8	38.8	38.8	94	37.2	3	8	90	0.00	30.226 
04:00	38.8	35.9	38.8	94	37.2	4	7	90	0.00	30.221 
04:05	38.8	38.8	38.8	95	37.5	3	9	112	0.00	30.221 
04:10	38.9	38.9	38.9	95	37.6	3	6	90	0.00	30.221 
04:15	38.9	38.9	38.9	95	37.6	3	6	112	0.00	30.225 
04:20	38.9	38.9	38.9	95	37.6	3	11	90	0.00	30.225 
04:25	39.1	39.1	39.1	95	37.8	3	7	90	0.00	30.225 
04:30	39.1	39.1	39.1	95	37.8	3	7	90	0.00	30.223 
04:35	39.1	39.1	39.1	95	37.8	3	7	90	0.00	30.223 
04:40	39.1	39.1	39.1	95	37.8	3	7	90	0.00	30.223 
04:45	39.1	39.1	39.1	95	37.8	3	8	112	0.00	30.221 
04:50	39.2	39.2	39.2	95	37.9	2	4	90	0.00	30.221 
04:55	39.2	39.2	39.2	95	37.9	3	7	112	0.00	30.221 
05:00	39.2	39.2	39.2	95	37.9	2	5	90	0.00	30.212 
05:05	39.2	39.2	39.2	95	37.9	3	6	90	0.00	30.212 
05:10	39.2	39.2	39.2	95	37.9	3	7	68	0.00	30.212 
05:15	39.2	39.2	39.2	95	37.9	2	5	90	0.00	30.221 
05:20	39.2	39.2	39.2	95	37.9	3	6	68	0.00	30.221 
05:25	39.2	39.2	39.2	95	37.9	3	6	90	0.00	30.221 
05:30	39.2	39.2	39.2	95	37.9	3	7	90	0.00	30.208 
05:35	39.2	39.2	39.2	95	37.9	3	10	90	0.00	30.208 
05:40	39.2	39.2	39.2	95	37.9	3	10	90	0.00	30.208 
05:45	39.2	39.2	39.2	95	37.9	3	7	90	0.00	30.210 
05:50	39.2	39.2	39.2	95	37.9	3	5	90	0.00	30.210 
05:55	39.2	39.2	39.2	95	37.9	2	5	90	0.00	30.210 
06:00	39.2	39.2	39.2	95	37.9	2	6	90	0.00	30.204 
06:05	39.2	39.2	39.2	95	37.9	2	6	68	0.00	30.204 
06:10	39.2	39.2	39.2	95	37.9	2	6	90	0.00	30.204 
06:15	39.2	39.2	39.2	95	37.9	2	5	112	0.00	30.198 
06:20	39.2	39.2	39.2	96	38.2	3	7	112	0.00	30.198 
06:25	39.2	39.2	39.2	96	38.2	3	7	90	0.00	30.198 
06:30	39.2	39.2	39.2	96	38.2	3	8	90	0.00	30.191 
06:35	39.2	39.2	39.2	96	38.2	3	5	90	0.00	30.191 
06:40	39.2	39.2	39.2	96	38.2	2	5	112	0.00	30.191 
06:45	39.2	39.2	39.2	96	38.2	3	5	112	0.00	30.181 
06:50	39.2	39.2	39.2	96	38.2	3	5	90	0.00	30.181 
06:55	39.3	39.3	39.3	96	38.3	3	7	90	0.00	30.181 
07:00	39.3	39.3	39.3	96	38.3	2	5	112	0.00	30.177 
07:05	39.3	39.3	39.3	96	38.3	3	6	90	0.00	30.177 
07:10	39.3	39.3	39.3	96	38.3	2	6	112	0.00	30.177 
07:15	39.3	39.3	39.3	96	38.3	2	5	112	0.00	30.181 
07:20	39.3	39.3	39.3	96	38.3	3	6	112	0.00	30.181 
07:25	39.3	39.3	39.3	96	38.3	2	6	112	0.00	30.181 
07:30	39.3	39.3	39.3	96	38.3	3	8	112	0.00	30.182 
07:35	39.3	39.3	39.3	96	38.3	2	6	112	0.00	30.182 
07:40	39.3	39.3	39.3	96	38.3	2	5	112	0.00	30.182 
07:45	39.3	39.3	39.3	96	38.3	3	9	112	0.00	30.168 
07:50	39.3	39.3	39.3	96	38.3	3	5	90	0.00	30.168 
07:55	39.3	39.3	39.3	96	38.3	2	6	112	0.00	30.168 
08:00	39.3	39.3	39.3	96	38.3	2	4	112	0.00	30.161 
08:05	39.3	39.3	39.3	96	38.3	3	5	90	0.00	30.161 
08:10	39.3	39.3	39.3	96	38.3	2	5	112	0.00	30.161 
08:15	39.3	39.3	39.3	96	38.3	1	5	90	0.00	30.163 
08:20	39.5	39.5	39.5	96	38.5	1	4	90	0.00	30.163 
08:25	39.5	39.5	39.5	96	38.5	1	3	90	0.00	30.163 
08:30	39.6	39.6	39.6	96	38.6	1	5	90	0.00	30.165 
08:35	39.6	39.6	39.6	96	38.6	1	4	90	0.00	30.165 
08:40	39.8	39.8	39.8	96	38.8	1	3	90	0.00	30.165 
08:45	39.8	39.8	39.8	96	38.8	1	3	90	0.00	30.165 
08:50	39.9	39.9	39.9	96	38.9	1	5	90	0.00	30.165 
08:55	40.1	40.1	40.1	96	39.1	1	4	90	0.00	30.165 
09:00	40.2	40.2	40.2	96	39.2	0	3	90	0.00	30.163 
09:05	40.5	40.5	40.5	96	39.5	1	3	90	0.00	30.163 
09:10	40.8	40.8	40.8	96	39.7	1	3	112	0.00	30.163 
09:15	40.9	40.9	40.9	96	39.8	0	2	112	0.00	30.151 
09:20	40.9	40.9	40.9	96	39.8	1	4	112	0.00	30.151 
09:25	41.1	41.1	41.1	96	40.0	1	3	112	0.00	30.151 
09:30	41.3	41.3	41.3	96	40.2	1	4	112	0.00	30.149 
09:35	41.6	41.6	41.6	96	40.5	1	3	112	0.00	30.149 
09:40	41.9	41.9	41.9	96	40.8	1	4	112	0.00	30.149 
09:45	42.3	42.3	42.3	96	41.2	1	4	112	0.00	30.139 
09:50	42.6	42.6	42.6	96	41.5	1	2	135	0.00	30.139 
09:55	43.1	43.1	43.1	96	42.0	1	3	135	0.00	30.139 
10:00	43.6	43.6	43.6	96	42.5	1	4	135	0.00	30.130 
10:05	44.1	44.1	44.1	96	43.0	1	9	0	0.00	30.130 
10:10	44.6	44.6	44.6	96	43.5	1	3	0	0.00	30.130 
10:15	45.1	45.1	45.1	96	44.0	0	3	135	0.00	30.121 
10:20	45.7	45.7	45.7	95	44.4	0	2	180	0.00	30.121 
10:25	46.1	46.1	46.1	94	44.5	2	4	90	0.00	30.121 
10:30	46.7	46.7	46.7	93	44.8	1	5	112	0.00	30.111 
10:35	47.3	47.3	47.3	92	45.1	1	4	135	0.00	30.111 
10:40	47.9	47.9	47.9	91	45.4	1	6	90	0.00	30.111 
10:45	48.8	48.8	48.8	90	46.0	1	6	90	0.00	30.114 
10:50	49.4	49.4	49.4	88	46.0	1	4	68	0.00	30.114 
10:55	49.9	49.9	49.9	86	45.9	1	5	270	0.00	30.114 
11:00	50.5	50.5	50.5	84	45.8	1	4	180	0.00	30.108 
11:05	51.1	51.1	51.1	83	46.1	0	2	90	0.00	30.108 
11:10	51.7	51.7	51.7	83	46.7	0	2	315	0.00	30.108 
11:15	52.2	52.2	52.2	81	46.5	1	4	112	0.00	30.101 
11:20	52.8	52.8	52.8	81	47.1	0	4	112	0.00	30.101 
11:25	53.3	53.3	53.3	80	47.3	0	1	112	0.00	30.101 
11:30	54.4	54.4	54.4	80	48.4	0	4	68	0.00	30.088 
11:35	55.4	55.4	55.4	78	48.7	1	4	68	0.00	30.088 
11:40	56.2	56.2	56.2	76	48.7	2	7	90	0.00	30.088 
11:45	56.7	56.7	56.7	74	48.5	2	6	68	0.00	30.069 
11:50	57.2	57.2	57.2	73	48.6	2	9	248	0.00	30.069 
11:55	57.3	57.3	57.3	72	48.3	2	7	248	0.00	30.069 
12:00	57.5	57.5	57.5	71	48.2	4	10	248	0.00	30.067 
12:05	57.5	57.5	57.5	70	47.8	3	7	248	0.00	30.067 
12:10	57.5	57.5	57.5	71	48.2	3	9	248	0.00	30.067 
12:15	57.5	57.5	57.5	71	48.2	3	10	248	0.00	30.064 
12:20	57.3	57.3	57.3	71	48.0	3	11	225	0.00	30.064 
12:25	57.2	57.2	57.2	71	47.9	4	9	248	0.00	30.064 
12:30	57.0	57.0	57.0	72	48.1	5	12	248	0.00	30.064 
12:35	56.7	56.7	56.7	72	47.8	3	9	248	0.00	30.064 
12:40	56.7	56.7	56.7	73	48.1	3	7	248	0.00	30.064 
12:45	56.7	56.7	56.7	72	47.8	3	10	248	0.00	30.069 
12:50	56.7	56.7	56.7	72	47.8	3	9	248	0.00	30.069 
12:55	56.6	56.6	56.6	72	47.7	3	9	248	0.00	30.069 
13:00	56.6	56.6	56.6	72	47.7	3	7	248	0.00	30.063 
13:05	56.6	56.6	56.6	73	48.0	1	3	248	0.00	30.063 
13:10	56.6	56.6	56.6	73	48.0	1	4	248	0.00	30.063 
13:15	56.6	56.6	56.6	73	48.0	2	11	248	0.00	30.051 
13:20	56.6	56.6	56.6	73	48.0	1	5	248	0.00	30.051 
13:25	56.7	56.7	56.7	73	48.1	2	7	248	0.00	30.051 
13:30	56.9	56.9	56.9	74	48.7	1	5	248	0.00	30.048 
13:35	56.9	56.9	56.9	74	48.7	3	7	248	0.00	30.048 
13:40	56.9	56.9	56.9	74	48.7	3	6	248	0.00	30.048 
13:45	56.9	56.9	56.9	74	48.7	3	7	270	0.00	30.051 
13:50	56.9	56.9	56.9	75	49.1	2	6	248	0.00	30.051 
13:55	57.0	57.0	57.0	75	49.2	3	10	248	0.00	30.051 
14:00	57.0	57.0	57.0	75	49.2	2	6	225	0.00	30.043 
14:05	57.2	57.2	57.2	75	49.3	2	5	248	0.00	30.043 
14:10	57.3	57.3	57.3	74	49.1	3	8	248	0.00	30.043 
14:15	57.3	57.3	57.3	75	49.4	2	10	158	0.00	30.035 
14:20	57.5	57.5	57.5	75	49.6	2	9	270	0.00	30.035 
14:25	57.5	57.5	57.5	75	49.6	2	7	248	0.00	30.035 
14:30	57.5	57.5	57.5	74	49.3	3	9	225	0.00	30.025 
14:35	57.5	57.5	57.5	74	49.3	3	9	248	0.00	30.025 
14:40	57.6	57.6	57.6	74	49.4	3	9	270	0.00	30.025 
14:45	57.6	57.6	57.6	74	49.4	2	5	248	0.00	30.024 
14:50	57.8	57.8	57.8	74	49.6	2	7	248	0.00	30.024 
14:55	57.8	57.8	57.8	73	49.2	2	7	270	0.00	30.024 
15:00	57.8	57.8	57.8	74	49.6	2	5	225	0.00	30.023 
15:05	57.8	57.8	57.8	73	49.2	1	4	248	0.00	30.023 
15:10	57.8	57.8	57.8	73	49.2	2	7	248	0.00	30.023 
15:15	57.6	57.6	57.6	73	49.0	3	9	248	0.00	30.021 
15:20	57.6	57.6	57.6	73	49.0	3	6	248	0.00	30.021 
15:25	57.5	57.5	57.5	73	48.9	2	7	225	0.00	30.021 
15:30	57.5	57.5	57.5	73	48.9	2	7	248	0.00	30.022 
15:35	57.5	57.5	57.5	73	48.9	1	4	248	0.00	30.022 
15:40	57.5	57.5	57.5	73	48.9	2	5	248	0.00	30.022 
15:45	57.5	57.5	57.5	73	48.9	2	5	270	0.00	30.023 
15:50	57.5	57.5	57.5	73	48.9	1	6	248	0.00	30.023 
15:55	57.5	57.5	57.5	72	48.5	2	5	270	0.00	30.023 
16:00	57.6	57.6	57.6	72	48.6	2	9	248	0.00	30.023 
16:05	57.5	57.5	57.5	72	48.5	1	4	248	0.00	30.023 
16:10	57.5	57.5	57.5	72	48.5	1	3	248	0.00	30.023 
16:15	57.5	57.5	57.5	72	48.5	1	5	248	0.00	30.016 
16:20	57.5	57.5	57.5	72	48.5	1	4	270	0.00	30.016 
16:25	57.5	57.5	57.5	72	48.5	0	4	270	0.00	30.016 
16:30	57.3	57.3	57.3	72	48.3	1	4	112	0.00	30.005 
16:35	57.5	57.5	57.5	72	48.5	1	4	112	0.00	30.005 
16:40	57.5	57.5	57.5	72	48.5	2	5	90	0.00	30.005 
16:45	57.6	57.6	57.6	73	49.0	1	5	90	0.00	29.992 
16:50	57.6	57.6	57.6	73	49.0	1	3	338	0.00	29.992 
16:55	57.6	57.6	57.6	73	49.0	1	7	90	0.00	29.992 
17:00	57.6	57.6	57.6	73	49.0	1	4	112	0.00	29.993 
17:05	57.8	57.8	57.8	73	49.2	1	4	112	0.00	29.993 
17:10	57.8	57.8	57.8	73	49.2	2	4	68	0.00	29.993 
17:15	58.0	58.0	58.0	73	49.4	2	5	90	0.00	29.983 
17:20	58.1	58.1	58.1	74	49.9	1	5	90	0.00	29.983 
17:25	58.1	58.1	58.1	73	49.5	2	7	90	0.00	29.983 
17:30	58.3	58.3	58.3	74	50.0	2	5	90	0.00	29.977 
17:35	58.3	58.3	58.3	74	50.0	2	7	90	0.00	29.977 
17:40	58.3	58.3	58.3	74	50.0	1	3	22	0.00	29.977 
17:45	58.4	58.4	58.4	74	50.1	1	7	45	0.00	29.980 
17:50	58.4	58.4	58.4	73	49.8	1	5	90	0.00	29.980 
17:55	58.6	58.6	58.6	73	50.0	1	7	315	0.00	29.980 
18:00	58.6	58.6	58.6	73	50.0	2	5	270	0.00	29.979 
18:05	58.9	58.9	58.9	73	50.3	2	6	248	0.00	29.979 
18:10	59.0	59.0	59.0	73	50.4	3	11	248	0.00	29.979 
18:15	59.2	59.2	59.2	72	50.2	3	7	248	0.00	29.992 
18:20	59.3	59.3	59.3	72	50.3	2	6	248	0.00	29.992 
18:25	59.3	59.3	59.3	72	50.3	2	7	248	0.00	29.992 
18:30	59.3	59.3	59.3	72	50.3	2	6	248	0.00	29.990 
18:35	59.3	59.3	59.3	72	50.3	3	7	248	0.00	29.990 
18:40	59.5	59.5	59.5	71	50.1	2	6	248	0.00	29.990 
18:45	59.5	59.5	59.5	71	50.1	2	7	248	0.00	29.991 
18:50	59.5	59.5	59.5	71	50.1	3	7	248	0.00	29.991 
18:55	59.6	59.6	59.6	71	50.2	2	6	225	0.00	29.991 
19:00	59.6	59.6	59.6	71	50.2	2	7	270	0.00	29.989 
19:05	59.8	59.8	59.8	71	50.4	2	6	270	0.00	29.989 
19:10	59.8	59.8	59.8	71	50.4	2	7	248	0.00	29.989 
19:15	59.8	59.8	59.8	71	50.4	2	9	270	0.00	29.981 
19:20	59.8	59.8	59.8	71	50.4	1	5	68	0.00	29.981 
19:25	59.8	59.8	59.8	71	50.4	2	12	248	0.00	29.981 
19:30	59.6	59.6	59.6	71	50.2	2	5	248	0.00	29.986 
19:35	59.6	59.6	59.6	72	50.6	2	7	225	0.00	29.986 
19:40	59.6	59.6	59.6	72	50.6	2	6	248	0.00	29.986 
19:45	59.6	59.6	59.6	72	50.6	2	5	248	0.00	29.985 
19:50	59.6	59.6	59.6	72	50.6	2	9	248	0.00	29.985 
19:55	59.8	59.8	59.8	72	50.8	2	7	270	0.00	29.985 
20:00	59.8	59.8	59.8	72	50.8	2	10	248	0.00	29.983 
20:05	59.8	59.8	59.8	72	50.8	2	9	90	0.00	29.983 
20:10	59.8	59.8	59.8	72	50.8	2	6	292	0.00	29.983 
20:15	59.9	59.9	59.9	72	50.8	2	5	225	0.00	29.974 
20:20	59.9	59.9	59.9	72	50.8	2	6	248	0.00	29.974 
20:25	59.9	59.9	59.9	72	50.8	2	6	248	0.00	29.974 
20:30	60.1	60.1	60.1	71	50.7	1	5	248	0.00	29.975 
20:35	60.2	60.2	60.2	71	50.8	3	7	248	0.00	29.975 
20:40	60.2	60.2	60.2	71	50.8	2	7	248	0.00	29.975 
20:45	60.4	60.4	60.4	71	50.9	3	11	248	0.00	29.984 
20:50	60.4	60.4	60.4	71	50.9	2	7	248	0.00	29.984 
20:55	60.5	60.5	60.5	71	51.0	2	7	248	0.00	29.984 
21:00	60.5	60.5	60.5	71	51.0	2	4	248	0.00	29.989 
21:05	60.5	60.5	60.5	71	51.0	2	7	248	0.00	29.989 
21:10	60.7	60.7	60.7	71	51.2	2	6	225	0.00	29.989 
21:15	60.7	60.7	60.7	71	51.2	2	6	248	0.00	29.991 
21:20	60.7	60.7	60.7	71	51.2	3	12	248	0.00	29.991 
21:25	60.7	60.7	60.7	71	51.2	2	7	248	0.00	29.991 
21:30	60.5	60.5	60.5	71	51.0	1	4	248	0.00	29.984 
21:35	60.5	60.5	60.5	71	51.0	1	4	270	0.00	29.984 
21:40	60.5	60.5	60.5	71	51.0	2	7	248	0.00	29.984 
21:45	60.5	60.5	60.5	71	51.0	2	5	248	0.00	29.985 
21:50	60.5	60.5	60.5	71	51.0	2	8	248	0.00	29.985 
21:55	60.7	60.7	60.7	71	51.2	3	8	248	0.00	29.985 
22:00	60.7	60.7	60.7	71	51.2	3	9	248	0.00	29.989 
22:05	60.7	60.7	60.7	71	51.2	3	9	248	0.00	29.989 
22:10	60.7	60.7	60.7	71	51.2	2	6	270	0.00	29.989 
22:15	60.7	60.7	60.7	71	51.2	2	4	90	0.00	29.980 
22:20	60.9	60.9	60.9	71	51.4	2	7	270	0.00	29.980 
22:25	60.9	60.9	60.9	71	51.4	3	7	248	0.00	29.980 
22:30	60.9	60.9	60.9	71	51.4	2	6	248	0.00	29.980 
22:35	61.0	61.0	61.0	71	51.5	3	7	248	0.00	29.980 
22:40	61.0	61.0	61.0	71	51.5	3	10	248	0.00	29.980 
22:45	61.0	61.0	61.0	71	51.5	3	10	270	0.00	29.979 
22:50	61.0	61.0	61.0	70	51.1	3	9	270	0.00	29.979 
22:55	61.2	61.2	61.2	70	51.3	3	7	248	0.00	29.979 
23:00	61.2	61.2	61.2	70	51.3	3	10	248	0.00	29.979 
23:05	61.0	61.0	61.0	70	51.1	2	6	248	0.00	29.979 
23:10	61.0	61.0	61.0	69	50.8	3	11	225	0.00	29.979 
23:15	61.0	61.0	61.0	69	50.8	3	10	248	0.00	29.971 
23:20	61.0	61.0	61.0	69	50.8	2	6	225	0.00	29.971 
23:25	61.0	61.0	61.0	69	50.8	3	7	248	0.00	29.971 
23:30	61.0	61.0	61.0	69	50.8	3	9	270	0.00	29.971 
23:35	61.0	61.0	61.0	69	50.8	3	9	248	0.00	29.971 
23:40	61.0	61.0	61.0	69	50.8	3	9	248	0.00	29.971 
23:45	61.0	61.0	61.0	69	50.8	2	9	248	0.00	29.967 
23:50	60.9	60.9	60.9	69	50.7	3	9	248	0.00	29.967 
23:55	60.9	60.9	60.9	69	50.7	3	6	248	0.00	29.967 

CoCoRaHS
IN-AL-39
A2 Web Hosting
Creative Commons License
GoDaddy
search engine by freefind advanced

loaded 2018-11-21 00:36:14 • last modified 2010-11-18 10:43:29
Privacy PolicyDisclaimer
• wx.awcolley.com is powered by PmWiki v.2002016 •
• all content (unless otherwise noted) © 2018 A W Colley